sensor_id;sensor_type;location;lat;lon;timestamp;temperature;humidity
20081;DHT22;10200;49.232;9.222;2024-02-26T00:00:10;8.10;99.90
20081;DHT22;10200;49.232;9.222;2024-02-26T00:02:37;8.10;99.90
20081;DHT22;10200;49.232;9.222;2024-02-26T00:05:07;8.10;99.90
20081;DHT22;10200;49.232;9.222;2024-02-26T00:07:33;8.10;99.90
20081;DHT22;10200;49.232;9.222;2024-02-26T00:09:58;8.10;99.90
20081;DHT22;10200;49.232;9.222;2024-02-26T00:12:24;8.10;99.90
20081;DHT22;10200;49.232;9.222;2024-02-26T00:14:49;8.10;99.90
20081;DHT22;10200;49.232;9.222;2024-02-26T00:17:15;8.10;99.90
20081;DHT22;10200;49.232;9.222;2024-02-26T00:19:41;8.10;99.90
20081;DHT22;10200;49.232;9.222;2024-02-26T00:22:07;8.10;99.90
20081;DHT22;10200;49.232;9.222;2024-02-26T00:24:32;8.10;99.90
20081;DHT22;10200;49.232;9.222;2024-02-26T00:26:59;8.10;99.90
20081;DHT22;10200;49.232;9.222;2024-02-26T00:29:25;8.10;99.90
20081;DHT22;10200;49.232;9.222;2024-02-26T00:31:51;8.00;99.90
20081;DHT22;10200;49.232;9.222;2024-02-26T00:34:16;8.00;99.90
20081;DHT22;10200;49.232;9.222;2024-02-26T00:36:42;8.00;99.90
20081;DHT22;10200;49.232;9.222;2024-02-26T00:39:08;8.00;99.90
20081;DHT22;10200;49.232;9.222;2024-02-26T00:41:38;8.00;99.90
20081;DHT22;10200;49.232;9.222;2024-02-26T00:44:04;8.00;99.90
20081;DHT22;10200;49.232;9.222;2024-02-26T00:46:29;8.00;99.90
20081;DHT22;10200;49.232;9.222;2024-02-26T00:48:55;8.00;99.90
20081;DHT22;10200;49.232;9.222;2024-02-26T00:51:20;8.00;99.90
20081;DHT22;10200;49.232;9.222;2024-02-26T00:53:46;8.00;99.90
20081;DHT22;10200;49.232;9.222;2024-02-26T00:56:11;8.00;99.90
20081;DHT22;10200;49.232;9.222;2024-02-26T00:58:37;8.00;99.90
20081;DHT22;10200;49.232;9.222;2024-02-26T01:01:02;7.90;99.90
20081;DHT22;10200;49.232;9.222;2024-02-26T01:03:28;7.90;99.90
20081;DHT22;10200;49.232;9.222;2024-02-26T01:05:54;7.90;99.90
20081;DHT22;10200;49.232;9.222;2024-02-26T01:08:19;7.90;99.90
20081;DHT22;10200;49.232;9.222;2024-02-26T01:10:45;7.90;99.90
20081;DHT22;10200;49.232;9.222;2024-02-26T01:13:11;7.90;99.90
20081;DHT22;10200;49.232;9.222;2024-02-26T01:15:37;7.90;99.90
20081;DHT22;10200;49.232;9.222;2024-02-26T01:18:02;7.80;99.90
20081;DHT22;10200;49.232;9.222;2024-02-26T01:20:28;7.80;99.90
20081;DHT22;10200;49.232;9.222;2024-02-26T01:22:53;7.80;99.90
20081;DHT22;10200;49.232;9.222;2024-02-26T01:25:19;7.80;99.90
20081;DHT22;10200;49.232;9.222;2024-02-26T01:27:45;7.80;99.90
20081;DHT22;10200;49.232;9.222;2024-02-26T01:30:11;7.80;99.90
20081;DHT22;10200;49.232;9.222;2024-02-26T01:32:37;7.80;99.90
20081;DHT22;10200;49.232;9.222;2024-02-26T01:35:03;7.80;99.90
20081;DHT22;10200;49.232;9.222;2024-02-26T01:37:29;7.80;99.90
20081;DHT22;10200;49.232;9.222;2024-02-26T01:39:57;7.80;99.90
20081;DHT22;10200;49.232;9.222;2024-02-26T01:42:23;7.80;99.90
20081;DHT22;10200;49.232;9.222;2024-02-26T01:44:48;7.80;99.90
20081;DHT22;10200;49.232;9.222;2024-02-26T01:47:14;7.80;99.90
20081;DHT22;10200;49.232;9.222;2024-02-26T01:49:40;7.80;99.90
20081;DHT22;10200;49.232;9.222;2024-02-26T01:52:06;7.80;99.90
20081;DHT22;10200;49.232;9.222;2024-02-26T01:54:35;7.70;99.90
20081;DHT22;10200;49.232;9.222;2024-02-26T01:57:02;7.70;99.90
20081;DHT22;10200;49.232;9.222;2024-02-26T01:59:28;7.70;99.90
20081;DHT22;10200;49.232;9.222;2024-02-26T02:01:55;7.70;99.90
20081;DHT22;10200;49.232;9.222;2024-02-26T02:04:23;7.70;99.90
20081;DHT22;10200;49.232;9.222;2024-02-26T02:06:50;7.60;99.90
20081;DHT22;10200;49.232;9.222;2024-02-26T02:09:16;7.60;99.90
20081;DHT22;10200;49.232;9.222;2024-02-26T02:11:41;7.70;99.90
20081;DHT22;10200;49.232;9.222;2024-02-26T02:14:07;7.70;99.90
20081;DHT22;10200;49.232;9.222;2024-02-26T02:16:33;7.60;99.90
20081;DHT22;10200;49.232;9.222;2024-02-26T02:18:59;7.70;99.90
20081;DHT22;10200;49.232;9.222;2024-02-26T02:21:25;7.60;99.90
20081;DHT22;10200;49.232;9.222;2024-02-26T02:23:50;7.60;99.90
20081;DHT22;10200;49.232;9.222;2024-02-26T02:26:16;7.60;99.90
20081;DHT22;10200;49.232;9.222;2024-02-26T02:28:43;7.60;99.90
20081;DHT22;10200;49.232;9.222;2024-02-26T02:31:08;7.60;99.90
20081;DHT22;10200;49.232;9.222;2024-02-26T02:33:34;7.50;99.90
20081;DHT22;10200;49.232;9.222;2024-02-26T02:36:00;7.50;99.90
20081;DHT22;10200;49.232;9.222;2024-02-26T02:38:26;7.40;99.90
20081;DHT22;10200;49.232;9.222;2024-02-26T02:40:53;7.40;99.90
20081;DHT22;10200;49.232;9.222;2024-02-26T02:43:18;7.40;99.90
20081;DHT22;10200;49.232;9.222;2024-02-26T02:45:44;7.40;99.90
20081;DHT22;10200;49.232;9.222;2024-02-26T02:48:11;7.40;99.90
20081;DHT22;10200;49.232;9.222;2024-02-26T02:50:36;7.40;99.90
20081;DHT22;10200;49.232;9.222;2024-02-26T02:53:02;7.40;99.90
20081;DHT22;10200;49.232;9.222;2024-02-26T02:55:28;7.40;99.90
20081;DHT22;10200;49.232;9.222;2024-02-26T02:57:53;7.40;99.90
20081;DHT22;10200;49.232;9.222;2024-02-26T03:00:19;7.50;99.90
20081;DHT22;10200;49.232;9.222;2024-02-26T03:02:45;7.50;99.90
20081;DHT22;10200;49.232;9.222;2024-02-26T03:05:11;7.50;99.90
20081;DHT22;10200;49.232;9.222;2024-02-26T03:07:37;7.50;99.90
20081;DHT22;10200;49.232;9.222;2024-02-26T03:10:03;7.50;99.90
20081;DHT22;10200;49.232;9.222;2024-02-26T03:12:30;7.60;99.90
20081;DHT22;10200;49.232;9.222;2024-02-26T03:14:56;7.60;99.90
20081;DHT22;10200;49.232;9.222;2024-02-26T03:17:22;7.60;99.90
20081;DHT22;10200;49.232;9.222;2024-02-26T03:19:49;7.60;99.90
20081;DHT22;10200;49.232;9.222;2024-02-26T03:22:18;7.60;99.90
20081;DHT22;10200;49.232;9.222;2024-02-26T03:24:44;7.60;99.90
20081;DHT22;10200;49.232;9.222;2024-02-26T03:27:09;7.60;99.90
20081;DHT22;10200;49.232;9.222;2024-02-26T03:29:36;7.60;99.90
20081;DHT22;10200;49.232;9.222;2024-02-26T03:32:02;7.60;99.90
20081;DHT22;10200;49.232;9.222;2024-02-26T03:34:28;7.60;99.90
20081;DHT22;10200;49.232;9.222;2024-02-26T03:36:55;7.60;99.90
20081;DHT22;10200;49.232;9.222;2024-02-26T03:39:21;7.60;99.90
20081;DHT22;10200;49.232;9.222;2024-02-26T03:41:48;7.60;99.90
20081;DHT22;10200;49.232;9.222;2024-02-26T03:44:13;7.60;99.90
20081;DHT22;10200;49.232;9.222;2024-02-26T03:46:39;7.60;99.90
20081;DHT22;10200;49.232;9.222;2024-02-26T03:49:05;7.60;99.90
20081;DHT22;10200;49.232;9.222;2024-02-26T03:51:30;7.50;99.90
20081;DHT22;10200;49.232;9.222;2024-02-26T03:53:57;7.50;99.90
20081;DHT22;10200;49.232;9.222;2024-02-26T03:56:24;7.50;99.90
20081;DHT22;10200;49.232;9.222;2024-02-26T03:58:49;7.50;99.90
20081;DHT22;10200;49.232;9.222;2024-02-26T04:01:15;7.50;99.90
20081;DHT22;10200;49.232;9.222;2024-02-26T04:03:41;7.40;99.90
20081;DHT22;10200;49.232;9.222;2024-02-26T04:06:10;7.40;99.90
20081;DHT22;10200;49.232;9.222;2024-02-26T04:08:37;7.40;99.90
20081;DHT22;10200;49.232;9.222;2024-02-26T04:11:03;7.40;99.90
20081;DHT22;10200;49.232;9.222;2024-02-26T04:13:33;7.40;99.90
20081;DHT22;10200;49.232;9.222;2024-02-26T04:15:59;7.40;99.90
20081;DHT22;10200;49.232;9.222;2024-02-26T04:18:27;7.30;99.90
20081;DHT22;10200;49.232;9.222;2024-02-26T04:20:52;7.20;99.90
20081;DHT22;10200;49.232;9.222;2024-02-26T04:23:18;7.20;99.90
20081;DHT22;10200;49.232;9.222;2024-02-26T04:25:44;7.20;99.90
20081;DHT22;10200;49.232;9.222;2024-02-26T04:28:09;7.20;99.90
20081;DHT22;10200;49.232;9.222;2024-02-26T04:30:35;7.20;99.90
20081;DHT22;10200;49.232;9.222;2024-02-26T04:33:01;7.20;99.90
20081;DHT22;10200;49.232;9.222;2024-02-26T04:35:26;7.20;99.90
20081;DHT22;10200;49.232;9.222;2024-02-26T04:37:52;7.10;99.90
20081;DHT22;10200;49.232;9.222;2024-02-26T04:40:17;7.10;99.90
20081;DHT22;10200;49.232;9.222;2024-02-26T04:42:43;7.10;99.90
20081;DHT22;10200;49.232;9.222;2024-02-26T04:45:08;7.10;99.90
20081;DHT22;10200;49.232;9.222;2024-02-26T04:47:34;7.00;99.90
20081;DHT22;10200;49.232;9.222;2024-02-26T04:50:00;7.00;99.90
20081;DHT22;10200;49.232;9.222;2024-02-26T04:52:25;7.00;99.90
20081;DHT22;10200;49.232;9.222;2024-02-26T04:54:51;7.00;99.90
20081;DHT22;10200;49.232;9.222;2024-02-26T04:57:17;7.00;99.90
20081;DHT22;10200;49.232;9.222;2024-02-26T04:59:44;7.00;99.90
20081;DHT22;10200;49.232;9.222;2024-02-26T05:02:11;6.90;99.90
20081;DHT22;10200;49.232;9.222;2024-02-26T05:04:38;6.90;99.90
20081;DHT22;10200;49.232;9.222;2024-02-26T05:07:04;6.90;99.90
20081;DHT22;10200;49.232;9.222;2024-02-26T05:09:30;7.00;99.90
20081;DHT22;10200;49.232;9.222;2024-02-26T05:11:55;7.00;99.90
20081;DHT22;10200;49.232;9.222;2024-02-26T05:14:21;7.00;99.90
20081;DHT22;10200;49.232;9.222;2024-02-26T05:16:47;7.00;99.90
20081;DHT22;10200;49.232;9.222;2024-02-26T05:19:13;7.00;99.90
20081;DHT22;10200;49.232;9.222;2024-02-26T05:21:38;7.00;99.90
20081;DHT22;10200;49.232;9.222;2024-02-26T05:24:05;7.00;99.90
20081;DHT22;10200;49.232;9.222;2024-02-26T05:26:31;6.90;99.90
20081;DHT22;10200;49.232;9.222;2024-02-26T05:28:57;7.00;99.90
20081;DHT22;10200;49.232;9.222;2024-02-26T05:31:26;7.00;99.90
20081;DHT22;10200;49.232;9.222;2024-02-26T05:33:52;6.90;99.90
20081;DHT22;10200;49.232;9.222;2024-02-26T05:36:23;6.90;99.90
20081;DHT22;10200;49.232;9.222;2024-02-26T05:38:49;6.90;99.90
20081;DHT22;10200;49.232;9.222;2024-02-26T05:41:18;7.00;99.90
20081;DHT22;10200;49.232;9.222;2024-02-26T05:43:49;7.00;99.90
20081;DHT22;10200;49.232;9.222;2024-02-26T05:46:19;7.00;99.90
20081;DHT22;10200;49.232;9.222;2024-02-26T05:48:50;7.10;99.90
20081;DHT22;10200;49.232;9.222;2024-02-26T05:51:15;7.10;99.90
20081;DHT22;10200;49.232;9.222;2024-02-26T05:53:41;7.20;99.90
20081;DHT22;10200;49.232;9.222;2024-02-26T05:56:07;7.20;99.90
20081;DHT22;10200;49.232;9.222;2024-02-26T05:58:33;7.20;99.90
20081;DHT22;10200;49.232;9.222;2024-02-26T06:00:58;7.20;99.90
20081;DHT22;10200;49.232;9.222;2024-02-26T06:03:25;7.20;99.90
20081;DHT22;10200;49.232;9.222;2024-02-26T06:05:51;7.20;99.90
20081;DHT22;10200;49.232;9.222;2024-02-26T06:08:16;7.20;99.90
20081;DHT22;10200;49.232;9.222;2024-02-26T06:10:42;7.20;99.90
20081;DHT22;10200;49.232;9.222;2024-02-26T06:13:07;7.20;99.90
20081;DHT22;10200;49.232;9.222;2024-02-26T06:15:33;7.30;99.90
20081;DHT22;10200;49.232;9.222;2024-02-26T06:17:59;7.30;99.90
20081;DHT22;10200;49.232;9.222;2024-02-26T06:20:24;7.20;99.90
20081;DHT22;10200;49.232;9.222;2024-02-26T06:22:50;7.20;99.90
20081;DHT22;10200;49.232;9.222;2024-02-26T06:25:16;7.20;99.90
20081;DHT22;10200;49.232;9.222;2024-02-26T06:27:41;7.20;99.90
20081;DHT22;10200;49.232;9.222;2024-02-26T06:30:07;7.30;99.90
20081;DHT22;10200;49.232;9.222;2024-02-26T06:32:34;7.20;99.90
20081;DHT22;10200;49.232;9.222;2024-02-26T06:34:59;7.30;99.90
20081;DHT22;10200;49.232;9.222;2024-02-26T06:37:25;7.30;99.90
20081;DHT22;10200;49.232;9.222;2024-02-26T06:39:50;7.30;99.90
20081;DHT22;10200;49.232;9.222;2024-02-26T06:42:17;7.30;99.90
20081;DHT22;10200;49.232;9.222;2024-02-26T06:44:43;7.30;99.90
20081;DHT22;10200;49.232;9.222;2024-02-26T06:47:08;7.20;99.90
20081;DHT22;10200;49.232;9.222;2024-02-26T06:49:34;7.20;99.90
20081;DHT22;10200;49.232;9.222;2024-02-26T06:51:59;7.30;99.90
20081;DHT22;10200;49.232;9.222;2024-02-26T06:54:25;7.30;99.90
20081;DHT22;10200;49.232;9.222;2024-02-26T06:56:51;7.30;99.90
20081;DHT22;10200;49.232;9.222;2024-02-26T06:59:16;7.30;99.90
20081;DHT22;10200;49.232;9.222;2024-02-26T07:01:42;7.30;99.90
20081;DHT22;10200;49.232;9.222;2024-02-26T07:04:08;7.30;99.90
20081;DHT22;10200;49.232;9.222;2024-02-26T07:06:34;7.30;99.90
20081;DHT22;10200;49.232;9.222;2024-02-26T07:08:59;7.30;99.90
20081;DHT22;10200;49.232;9.222;2024-02-26T07:11:25;7.30;99.90
20081;DHT22;10200;49.232;9.222;2024-02-26T07:13:50;7.30;99.90
20081;DHT22;10200;49.232;9.222;2024-02-26T07:16:16;7.20;99.90
20081;DHT22;10200;49.232;9.222;2024-02-26T07:18:42;7.20;99.90
20081;DHT22;10200;49.232;9.222;2024-02-26T07:21:12;7.30;99.90
20081;DHT22;10200;49.232;9.222;2024-02-26T07:23:37;7.30;99.90
20081;DHT22;10200;49.232;9.222;2024-02-26T07:26:03;7.30;99.90
20081;DHT22;10200;49.232;9.222;2024-02-26T07:28:29;7.40;99.90
20081;DHT22;10200;49.232;9.222;2024-02-26T07:30:54;7.40;99.90
20081;DHT22;10200;49.232;9.222;2024-02-26T07:33:20;7.40;99.90
20081;DHT22;10200;49.232;9.222;2024-02-26T07:35:46;7.40;99.90
20081;DHT22;10200;49.232;9.222;2024-02-26T07:38:11;7.30;99.90
20081;DHT22;10200;49.232;9.222;2024-02-26T07:40:38;7.40;99.90
20081;DHT22;10200;49.232;9.222;2024-02-26T07:43:04;7.40;99.90
20081;DHT22;10200;49.232;9.222;2024-02-26T07:45:29;7.40;99.90
20081;DHT22;10200;49.232;9.222;2024-02-26T07:47:55;7.30;99.90
20081;DHT22;10200;49.232;9.222;2024-02-26T07:50:21;7.40;99.90
20081;DHT22;10200;49.232;9.222;2024-02-26T07:52:46;7.40;99.90
20081;DHT22;10200;49.232;9.222;2024-02-26T07:55:12;7.40;99.90
20081;DHT22;10200;49.232;9.222;2024-02-26T07:57:37;7.40;99.90
20081;DHT22;10200;49.232;9.222;2024-02-26T08:00:07;7.40;99.90
20081;DHT22;10200;49.232;9.222;2024-02-26T08:02:34;7.50;99.90
20081;DHT22;10200;49.232;9.222;2024-02-26T08:05:00;7.50;99.90
20081;DHT22;10200;49.232;9.222;2024-02-26T08:07:26;7.60;99.90
20081;DHT22;10200;49.232;9.222;2024-02-26T08:09:51;7.60;99.90
20081;DHT22;10200;49.232;9.222;2024-02-26T08:12:17;7.70;99.90
20081;DHT22;10200;49.232;9.222;2024-02-26T08:14:42;7.70;99.90
20081;DHT22;10200;49.232;9.222;2024-02-26T08:17:09;7.80;99.90
20081;DHT22;10200;49.232;9.222;2024-02-26T08:19:35;7.80;99.90
20081;DHT22;10200;49.232;9.222;2024-02-26T08:22:01;7.80;99.90
20081;DHT22;10200;49.232;9.222;2024-02-26T08:24:26;7.90;99.90
20081;DHT22;10200;49.232;9.222;2024-02-26T08:26:52;7.90;99.90
20081;DHT22;10200;49.232;9.222;2024-02-26T08:29:18;7.90;99.90
20081;DHT22;10200;49.232;9.222;2024-02-26T08:31:43;7.90;99.90
20081;DHT22;10200;49.232;9.222;2024-02-26T08:34:09;8.00;99.90
20081;DHT22;10200;49.232;9.222;2024-02-26T08:36:35;8.00;99.90
20081;DHT22;10200;49.232;9.222;2024-02-26T08:39:00;8.00;99.90
20081;DHT22;10200;49.232;9.222;2024-02-26T08:41:26;8.00;99.90
20081;DHT22;10200;49.232;9.222;2024-02-26T08:43:52;8.00;99.90
20081;DHT22;10200;49.232;9.222;2024-02-26T08:46:17;8.10;99.90
20081;DHT22;10200;49.232;9.222;2024-02-26T08:48:43;8.10;99.90
20081;DHT22;10200;49.232;9.222;2024-02-26T08:51:09;8.10;99.90
20081;DHT22;10200;49.232;9.222;2024-02-26T08:53:36;8.20;99.90
20081;DHT22;10200;49.232;9.222;2024-02-26T08:56:01;8.30;99.90
20081;DHT22;10200;49.232;9.222;2024-02-26T08:58:28;8.50;99.90
20081;DHT22;10200;49.232;9.222;2024-02-26T09:00:54;8.70;99.90
20081;DHT22;10200;49.232;9.222;2024-02-26T09:03:19;8.90;99.90
20081;DHT22;10200;49.232;9.222;2024-02-26T09:05:45;9.10;99.90
20081;DHT22;10200;49.232;9.222;2024-02-26T09:08:10;9.20;99.90
20081;DHT22;10200;49.232;9.222;2024-02-26T09:10:36;9.40;99.90
20081;DHT22;10200;49.232;9.222;2024-02-26T09:13:02;9.40;99.90
20081;DHT22;10200;49.232;9.222;2024-02-26T09:15:27;9.40;99.90
20081;DHT22;10200;49.232;9.222;2024-02-26T09:17:53;9.50;99.90
20081;DHT22;10200;49.232;9.222;2024-02-26T09:20:19;9.50;99.90
20081;DHT22;10200;49.232;9.222;2024-02-26T09:22:48;9.50;99.90
20081;DHT22;10200;49.232;9.222;2024-02-26T09:25:14;9.50;99.90
20081;DHT22;10200;49.232;9.222;2024-02-26T09:27:43;9.50;99.90
20081;DHT22;10200;49.232;9.222;2024-02-26T09:30:13;9.50;99.90
20081;DHT22;10200;49.232;9.222;2024-02-26T09:32:39;9.40;99.90
20081;DHT22;10200;49.232;9.222;2024-02-26T09:35:06;9.40;99.90
20081;DHT22;10200;49.232;9.222;2024-02-26T09:37:31;9.40;99.90
20081;DHT22;10200;49.232;9.222;2024-02-26T09:39:58;9.30;99.90
20081;DHT22;10200;49.232;9.222;2024-02-26T09:42:26;9.30;99.90
20081;DHT22;10200;49.232;9.222;2024-02-26T09:44:54;9.30;99.90
20081;DHT22;10200;49.232;9.222;2024-02-26T09:47:28;9.30;99.90
20081;DHT22;10200;49.232;9.222;2024-02-26T09:49:56;9.30;99.90
20081;DHT22;10200;49.232;9.222;2024-02-26T09:52:23;9.40;99.90
20081;DHT22;10200;49.232;9.222;2024-02-26T09:54:49;9.60;99.90
20081;DHT22;10200;49.232;9.222;2024-02-26T09:57:15;9.70;99.90
20081;DHT22;10200;49.232;9.222;2024-02-26T09:59:43;9.90;99.90
20081;DHT22;10200;49.232;9.222;2024-02-26T10:02:12;10.10;99.90
20081;DHT22;10200;49.232;9.222;2024-02-26T10:04:39;10.20;99.90
20081;DHT22;10200;49.232;9.222;2024-02-26T10:07:09;10.20;99.90
20081;DHT22;10200;49.232;9.222;2024-02-26T10:09:35;10.20;99.90
20081;DHT22;10200;49.232;9.222;2024-02-26T10:12:01;10.30;99.90
20081;DHT22;10200;49.232;9.222;2024-02-26T10:14:27;10.30;99.90
20081;DHT22;10200;49.232;9.222;2024-02-26T10:16:52;10.40;99.90
20081;DHT22;10200;49.232;9.222;2024-02-26T10:19:25;10.50;99.90
20081;DHT22;10200;49.232;9.222;2024-02-26T10:21:58;10.60;99.90
20081;DHT22;10200;49.232;9.222;2024-02-26T10:24:25;10.60;99.90
20081;DHT22;10200;49.232;9.222;2024-02-26T10:26:52;10.70;99.90
20081;DHT22;10200;49.232;9.222;2024-02-26T10:29:21;10.80;99.90
20081;DHT22;10200;49.232;9.222;2024-02-26T10:31:47;10.80;99.90
20081;DHT22;10200;49.232;9.222;2024-02-26T10:34:14;11.00;99.90
20081;DHT22;10200;49.232;9.222;2024-02-26T10:36:40;11.10;99.90
20081;DHT22;10200;49.232;9.222;2024-02-26T10:39:11;11.30;99.90
20081;DHT22;10200;49.232;9.222;2024-02-26T10:41:37;11.40;99.90
20081;DHT22;10200;49.232;9.222;2024-02-26T10:44:04;11.60;99.90
20081;DHT22;10200;49.232;9.222;2024-02-26T10:46:29;11.60;99.90
20081;DHT22;10200;49.232;9.222;2024-02-26T10:48:56;11.70;99.90
20081;DHT22;10200;49.232;9.222;2024-02-26T10:51:29;11.70;99.90
20081;DHT22;10200;49.232;9.222;2024-02-26T10:53:58;11.70;99.90
20081;DHT22;10200;49.232;9.222;2024-02-26T10:56:28;11.70;99.90
20081;DHT22;10200;49.232;9.222;2024-02-26T10:58:55;11.80;99.90
20081;DHT22;10200;49.232;9.222;2024-02-26T11:01:22;11.80;99.90
20081;DHT22;10200;49.232;9.222;2024-02-26T11:03:51;11.80;99.90
20081;DHT22;10200;49.232;9.222;2024-02-26T11:06:18;11.90;99.90
20081;DHT22;10200;49.232;9.222;2024-02-26T11:08:44;11.90;99.90
20081;DHT22;10200;49.232;9.222;2024-02-26T11:11:13;12.00;99.90
20081;DHT22;10200;49.232;9.222;2024-02-26T11:13:41;12.20;99.90
20081;DHT22;10200;49.232;9.222;2024-02-26T11:16:11;12.30;99.90
20081;DHT22;10200;49.232;9.222;2024-02-26T11:18:37;12.40;98.80
20081;DHT22;10200;49.232;9.222;2024-02-26T11:21:05;12.40;97.60
20081;DHT22;10200;49.232;9.222;2024-02-26T11:23:34;12.40;97.50
20081;DHT22;10200;49.232;9.222;2024-02-26T11:26:03;12.50;97.60
20081;DHT22;10200;49.232;9.222;2024-02-26T11:28:32;12.70;98.30
20081;DHT22;10200;49.232;9.222;2024-02-26T11:30:59;12.90;96.80
20081;DHT22;10200;49.232;9.222;2024-02-26T11:33:26;12.90;96.10
20081;DHT22;10200;49.232;9.222;2024-02-26T11:35:53;12.90;94.70
20081;DHT22;10200;49.232;9.222;2024-02-26T11:38:24;13.00;94.70
20081;DHT22;10200;49.232;9.222;2024-02-26T11:40:51;13.00;94.30
20081;DHT22;10200;49.232;9.222;2024-02-26T11:43:22;13.10;93.60
20081;DHT22;10200;49.232;9.222;2024-02-26T11:45:50;13.10;92.50
20081;DHT22;10200;49.232;9.222;2024-02-26T11:48:21;13.20;92.80
20081;DHT22;10200;49.232;9.222;2024-02-26T11:51:05;13.10;91.90
20081;DHT22;10200;49.232;9.222;2024-02-26T11:53:31;13.20;91.90
20081;DHT22;10200;49.232;9.222;2024-02-26T11:59:11;13.20;90.90
20081;DHT22;10200;49.232;9.222;2024-02-26T12:01:38;13.30;90.50
20081;DHT22;10200;49.232;9.222;2024-02-26T12:04:05;13.30;88.60
20081;DHT22;10200;49.232;9.222;2024-02-26T12:06:39;13.30;86.60
20081;DHT22;10200;49.232;9.222;2024-02-26T12:09:05;13.40;85.60
20081;DHT22;10200;49.232;9.222;2024-02-26T12:11:32;13.50;86.50
20081;DHT22;10200;49.232;9.222;2024-02-26T12:13:58;13.60;86.00
20081;DHT22;10200;49.232;9.222;2024-02-26T12:16:39;13.60;84.80
20081;DHT22;10200;49.232;9.222;2024-02-26T12:19:06;13.60;83.90
20081;DHT22;10200;49.232;9.222;2024-02-26T12:21:36;13.80;85.00
20081;DHT22;10200;49.232;9.222;2024-02-26T12:24:13;13.80;83.20
20081;DHT22;10200;49.232;9.222;2024-02-26T12:26:39;13.90;81.30
20081;DHT22;10200;49.232;9.222;2024-02-26T12:29:05;14.00;79.90
20081;DHT22;10200;49.232;9.222;2024-02-26T12:31:32;14.10;79.00
20081;DHT22;10200;49.232;9.222;2024-02-26T12:33:59;14.10;77.60
20081;DHT22;10200;49.232;9.222;2024-02-26T12:36:25;14.20;76.90
20081;DHT22;10200;49.232;9.222;2024-02-26T12:38:51;14.20;77.30
20081;DHT22;10200;49.232;9.222;2024-02-26T12:41:17;14.20;76.00
20081;DHT22;10200;49.232;9.222;2024-02-26T12:43:42;14.10;76.00
20081;DHT22;10200;49.232;9.222;2024-02-26T12:46:08;14.10;75.20
20081;DHT22;10200;49.232;9.222;2024-02-26T12:48:34;14.00;75.20
20081;DHT22;10200;49.232;9.222;2024-02-26T12:51:00;14.00;76.30
20081;DHT22;10200;49.232;9.222;2024-02-26T12:53:26;14.10;77.00
20081;DHT22;10200;49.232;9.222;2024-02-26T12:55:54;14.20;77.40
20081;DHT22;10200;49.232;9.222;2024-02-26T12:58:20;14.20;76.60
20081;DHT22;10200;49.232;9.222;2024-02-26T13:00:51;14.30;76.90
20081;DHT22;10200;49.232;9.222;2024-02-26T13:03:16;14.30;76.50
20081;DHT22;10200;49.232;9.222;2024-02-26T13:05:42;14.30;75.80
20081;DHT22;10200;49.232;9.222;2024-02-26T13:08:08;14.40;76.10
20081;DHT22;10200;49.232;9.222;2024-02-26T13:10:34;14.50;76.20
20081;DHT22;10200;49.232;9.222;2024-02-26T13:13:02;14.50;75.50
20081;DHT22;10200;49.232;9.222;2024-02-26T13:15:28;14.60;75.00
20081;DHT22;10200;49.232;9.222;2024-02-26T13:17:53;14.60;74.80
20081;DHT22;10200;49.232;9.222;2024-02-26T13:20:30;14.50;74.20
20081;DHT22;10200;49.232;9.222;2024-02-26T13:23:07;14.60;75.00
20081;DHT22;10200;49.232;9.222;2024-02-26T13:25:33;14.60;75.00
20081;DHT22;10200;49.232;9.222;2024-02-26T13:28:12;14.50;74.10
20081;DHT22;10200;49.232;9.222;2024-02-26T13:30:39;14.50;74.20
20081;DHT22;10200;49.232;9.222;2024-02-26T13:33:11;14.50;74.50
20081;DHT22;10200;49.232;9.222;2024-02-26T13:35:37;14.50;74.50
20081;DHT22;10200;49.232;9.222;2024-02-26T13:38:04;14.50;74.00
20081;DHT22;10200;49.232;9.222;2024-02-26T13:40:30;14.60;74.50
20081;DHT22;10200;49.232;9.222;2024-02-26T13:42:55;14.60;73.80
20081;DHT22;10200;49.232;9.222;2024-02-26T13:45:21;14.60;74.00
20081;DHT22;10200;49.232;9.222;2024-02-26T13:47:47;14.70;73.20
20081;DHT22;10200;49.232;9.222;2024-02-26T13:50:12;14.70;72.80
20081;DHT22;10200;49.232;9.222;2024-02-26T13:52:38;14.70;73.50
20081;DHT22;10200;49.232;9.222;2024-02-26T13:55:04;14.80;74.10
20081;DHT22;10200;49.232;9.222;2024-02-26T13:57:30;14.80;73.90
20081;DHT22;10200;49.232;9.222;2024-02-26T13:59:55;14.70;73.10
20081;DHT22;10200;49.232;9.222;2024-02-26T14:02:21;14.70;73.20
20081;DHT22;10200;49.232;9.222;2024-02-26T14:04:47;14.70;73.50
20081;DHT22;10200;49.232;9.222;2024-02-26T14:07:13;14.60;73.90
20081;DHT22;10200;49.232;9.222;2024-02-26T14:09:39;14.60;74.20
20081;DHT22;10200;49.232;9.222;2024-02-26T14:12:04;14.60;74.60
20081;DHT22;10200;49.232;9.222;2024-02-26T14:14:30;14.60;74.80
20081;DHT22;10200;49.232;9.222;2024-02-26T14:16:59;14.60;74.40
20081;DHT22;10200;49.232;9.222;2024-02-26T14:19:24;14.60;73.70
20081;DHT22;10200;49.232;9.222;2024-02-26T14:21:50;14.60;73.60
20081;DHT22;10200;49.232;9.222;2024-02-26T14:24:15;14.50;72.90
20081;DHT22;10200;49.232;9.222;2024-02-26T14:26:42;14.50;73.10
20081;DHT22;10200;49.232;9.222;2024-02-26T14:29:07;14.50;73.20
20081;DHT22;10200;49.232;9.222;2024-02-26T14:31:33;14.50;73.40
20081;DHT22;10200;49.232;9.222;2024-02-26T14:33:59;14.50;73.00
20081;DHT22;10200;49.232;9.222;2024-02-26T14:36:24;14.50;72.90
20081;DHT22;10200;49.232;9.222;2024-02-26T14:38:51;14.40;72.50
20081;DHT22;10200;49.232;9.222;2024-02-26T14:41:17;14.30;71.90
20081;DHT22;10200;49.232;9.222;2024-02-26T14:43:42;14.30;72.30
20081;DHT22;10200;49.232;9.222;2024-02-26T14:46:08;14.30;72.40
20081;DHT22;10200;49.232;9.222;2024-02-26T14:48:33;14.30;72.30
20081;DHT22;10200;49.232;9.222;2024-02-26T14:51:00;14.30;72.30
20081;DHT22;10200;49.232;9.222;2024-02-26T14:53:26;14.30;72.40
20081;DHT22;10200;49.232;9.222;2024-02-26T14:55:52;14.30;72.80
20081;DHT22;10200;49.232;9.222;2024-02-26T14:58:18;14.30;72.30
20081;DHT22;10200;49.232;9.222;2024-02-26T15:00:43;14.30;72.40
20081;DHT22;10200;49.232;9.222;2024-02-26T15:03:09;14.30;71.80
20081;DHT22;10200;49.232;9.222;2024-02-26T15:05:35;14.20;71.80
20081;DHT22;10200;49.232;9.222;2024-02-26T15:08:00;14.20;72.10
20081;DHT22;10200;49.232;9.222;2024-02-26T15:10:27;14.20;72.40
20081;DHT22;10200;49.232;9.222;2024-02-26T15:12:54;14.10;72.80
20081;DHT22;10200;49.232;9.222;2024-02-26T15:15:21;14.10;73.30
20081;DHT22;10200;49.232;9.222;2024-02-26T15:17:47;14.10;73.40
20081;DHT22;10200;49.232;9.222;2024-02-26T15:20:15;14.10;73.40
20081;DHT22;10200;49.232;9.222;2024-02-26T15:22:40;14.00;74.10
20081;DHT22;10200;49.232;9.222;2024-02-26T15:25:07;13.90;73.50
20081;DHT22;10200;49.232;9.222;2024-02-26T15:27:33;13.90;73.70
20081;DHT22;10200;49.232;9.222;2024-02-26T15:29:59;13.80;74.10
20081;DHT22;10200;49.232;9.222;2024-02-26T15:32:25;13.80;74.30
20081;DHT22;10200;49.232;9.222;2024-02-26T15:34:55;13.80;75.00
20081;DHT22;10200;49.232;9.222;2024-02-26T15:37:21;13.70;75.10